Anselmo, Nebraska
Current Conditions -  °F | °C
As of 9:53 AM on Saturday 25 Oct 2014 (Local Time) from KBBW Reporting Station
Clear Clear  
Wind Chill: 14°   Ceiling: Unl
Heat Index: 14°   Visibility: 10mi
Dew Point:   Wind: 7mph
Humidity: 53%   Direction: 90°E
Pressure: 30.14"   Gusts: NA
Location:  41.62°N, 99.87°W
Report Text: KBBW 251453Z AUTO 09006KT 10SM CLR 14/05 A3014 RMK AO2 SLP205 T01440050 53011
Loading
Personal Weather Stations






























Interactive Weather Map
Tropical Storm Tracking
New forecast layout! Learn more

10-Day Weather Forecast

Advertisements
Track Severe Weather on mobile